Time,TemperatureF,DewpointF,PressureIn,WindDirection,WindDirectionDegrees,WindSpeedMPH,WindSpeedGustMPH,Humidity,HourlyPrecipIn,Conditions,Clouds,dailyrainin,SoftwareType,DateUTC
2013-06-07 00:45:00,57.9,55.3,29.91,N/A,-737280,0.0,-999.0,91,0.00,,,0.00,Wunderground v.1.15,2013-06-07 07:45:00,
2013-06-07 00:50:00,57.9,55.3,29.91,N/A,-737280,0.0,-999.0,91,0.00,,,0.00,Wunderground v.1.15,2013-06-07 07:50:00,
2013-06-07 00:55:00,57.9,55.3,29.91,N/A,-737280,0.0,-999.0,91,0.00,,,0.00,Wunderground v.1.15,2013-06-07 07:55:00,
2013-06-07 01:00:00,57.9,55.3,29.91,N/A,-737280,0.0,-999.0,91,0.00,,,0.00,Wunderground v.1.15,2013-06-07 08:00:00,
2013-06-07 01:05:00,57.9,55.3,29.91,N/A,-737280,0.0,-999.0,91,0.00,,,0.00,Wunderground v.1.15,2013-06-07 08:05:00,
2013-06-07 01:10:00,57.9,55.3,29.91,N/A,-737280,0.0,-999.0,91,0.00,,,0.00,Wunderground v.1.15,2013-06-07 08:10:00,
2013-06-07 01:15:00,57.8,55.5,29.91,N/A,-737280,0.0,-999.0,92,0.00,,,0.00,Wunderground v.1.15,2013-06-07 08:15:00,
2013-06-07 01:20:00,57.8,55.5,29.91,N/A,-737280,0.0,-999.0,92,0.00,,,0.00,Wunderground v.1.15,2013-06-07 08:20:00,
2013-06-07 01:25:00,57.8,55.5,29.91,N/A,-737280,0.0,-999.0,92,0.00,,,0.00,Wunderground v.1.15,2013-06-07 08:25:00,
2013-06-07 01:30:00,57.8,55.5,29.91,N/A,-737280,0.0,-999.0,92,0.00,,,0.00,Wunderground v.1.15,2013-06-07 08:30:00,
2013-06-07 01:35:00,57.8,55.5,29.91,N/A,-737280,0.0,-999.0,92,0.00,,,0.00,Wunderground v.1.15,2013-06-07 08:35:00,
2013-06-07 01:40:00,57.8,55.5,29.91,N/A,-737280,0.0,-999.0,92,0.00,,,0.00,Wunderground v.1.15,2013-06-07 08:40:00,
2013-06-07 01:45:00,57.8,55.5,29.90,N/A,-737280,0.0,-999.0,92,0.00,,,0.00,Wunderground v.1.15,2013-06-07 08:45:00,
2013-06-07 01:50:00,57.8,55.5,29.90,N/A,-737280,0.0,-999.0,92,0.00,,,0.00,Wunderground v.1.15,2013-06-07 08:50:00,
2013-06-07 01:55:00,57.8,55.5,29.90,N/A,-737280,0.0,-999.0,92,0.00,,,0.00,Wunderground v.1.15,2013-06-07 08:55:00,
2013-06-07 02:00:00,57.8,55.5,29.90,N/A,-737280,0.0,-999.0,92,0.00,,,0.00,Wunderground v.1.15,2013-06-07 09:00:00,
2013-06-07 02:05:00,57.8,55.5,29.90,N/A,-737280,0.0,-999.0,92,0.00,,,0.00,Wunderground v.1.15,2013-06-07 09:05:00,
2013-06-07 02:10:00,57.8,55.5,29.90,N/A,-737280,0.0,-999.0,92,0.00,,,0.00,Wunderground v.1.15,2013-06-07 09:10:00,
2013-06-07 02:15:00,57.5,55.2,29.89,West,270,0.0,-999.0,92,0.00,,,0.00,Wunderground v.1.15,2013-06-07 09:15:00,
2013-06-07 02:20:00,57.5,55.2,29.89,West,270,0.0,-999.0,92,0.00,,,0.00,Wunderground v.1.15,2013-06-07 09:20:00,
2013-06-07 02:25:00,57.5,55.2,29.89,West,270,0.0,-999.0,92,0.00,,,0.00,Wunderground v.1.15,2013-06-07 09:25:00,
2013-06-07 02:30:00,57.5,55.2,29.89,West,270,0.0,-999.0,92,0.00,,,0.00,Wunderground v.1.15,2013-06-07 09:30:00,
2013-06-07 02:35:00,57.5,55.2,29.89,West,270,0.0,-999.0,92,0.00,,,0.00,Wunderground v.1.15,2013-06-07 09:35:00,
2013-06-07 02:40:00,57.5,55.2,29.89,West,270,0.0,-999.0,92,0.00,,,0.00,Wunderground v.1.15,2013-06-07 09:40:00,
2013-06-07 02:45:00,57.5,55.2,29.89,N/A,-737280,0.0,-999.0,92,0.00,,,0.00,Wunderground v.1.15,2013-06-07 09:45:00,
2013-06-07 02:50:00,57.5,55.2,29.89,N/A,-737280,0.0,-999.0,92,0.00,,,0.00,Wunderground v.1.15,2013-06-07 09:50:00,
2013-06-07 02:55:00,57.5,55.2,29.89,N/A,-737280,0.0,-999.0,92,0.00,,,0.00,Wunderground v.1.15,2013-06-07 09:55:00,
2013-06-07 03:00:00,57.5,55.2,29.89,N/A,-737280,0.0,-999.0,92,0.00,,,0.00,Wunderground v.1.15,2013-06-07 10:00:00,
2013-06-07 03:05:00,57.5,55.2,29.89,N/A,-737280,0.0,-999.0,92,0.00,,,0.00,Wunderground v.1.15,2013-06-07 10:05:00,
2013-06-07 03:10:00,57.5,55.2,29.89,N/A,-737280,0.0,-999.0,92,0.00,,,0.00,Wunderground v.1.15,2013-06-07 10:10:00,
2013-06-07 03:15:00,57.5,55.5,29.89,N/A,-737280,0.0,-999.0,93,0.00,,,0.00,Wunderground v.1.15,2013-06-07 10:15:00,
2013-06-07 03:20:00,57.5,55.5,29.89,N/A,-737280,0.0,-999.0,93,0.00,,,0.00,Wunderground v.1.15,2013-06-07 10:20:00,
2013-06-07 03:25:00,57.5,55.5,29.89,N/A,-737280,0.0,-999.0,93,0.00,,,0.00,Wunderground v.1.15,2013-06-07 10:25:00,
2013-06-07 03:30:00,57.5,55.5,29.89,N/A,-737280,0.0,-999.0,93,0.00,,,0.00,Wunderground v.1.15,2013-06-07 10:30:00,
2013-06-07 03:35:00,57.5,55.5,29.89,N/A,-737280,0.0,-999.0,93,0.00,,,0.00,Wunderground v.1.15,2013-06-07 10:35:00,
2013-06-07 03:40:00,57.5,55.5,29.89,N/A,-737280,0.0,-999.0,93,0.00,,,0.00,Wunderground v.1.15,2013-06-07 10:40:00,
2013-06-07 03:45:00,57.5,55.5,29.88,N/A,-737280,0.0,-999.0,93,0.00,,,0.00,Wunderground v.1.15,2013-06-07 10:45:00,
2013-06-07 03:50:00,57.5,55.5,29.88,N/A,-737280,0.0,-999.0,93,0.00,,,0.00,Wunderground v.1.15,2013-06-07 10:50:00,
2013-06-07 03:55:00,57.5,55.5,29.88,N/A,-737280,0.0,-999.0,93,0.00,,,0.00,Wunderground v.1.15,2013-06-07 10:55:00,
2013-06-07 04:00:00,57.5,55.5,29.88,N/A,-737280,0.0,-999.0,93,0.00,,,0.00,Wunderground v.1.15,2013-06-07 11:00:00,
2013-06-07 04:05:00,57.5,55.5,29.88,N/A,-737280,0.0,-999.0,93,0.00,,,0.00,Wunderground v.1.15,2013-06-07 11:05:00,
2013-06-07 04:10:00,57.5,55.5,29.88,N/A,-737280,0.0,-999.0,93,0.00,,,0.00,Wunderground v.1.15,2013-06-07 11:10:00,
2013-06-07 04:15:00,57.5,55.5,29.88,East,90,0.0,-999.0,93,0.00,,,0.00,Wunderground v.1.15,2013-06-07 11:15:00,
2013-06-07 04:20:00,57.5,55.5,29.88,East,90,0.0,-999.0,93,0.00,,,0.00,Wunderground v.1.15,2013-06-07 11:20:00,
2013-06-07 04:25:00,57.5,55.5,29.88,East,90,0.0,-999.0,93,0.00,,,0.00,Wunderground v.1.15,2013-06-07 11:25:00,
2013-06-07 04:30:00,57.5,55.5,29.88,East,90,0.0,-999.0,93,0.00,,,0.00,Wunderground v.1.15,2013-06-07 11:30:00,
2013-06-07 04:35:00,57.5,55.5,29.88,East,90,0.0,-999.0,93,0.00,,,0.00,Wunderground v.1.15,2013-06-07 11:35:00,
2013-06-07 04:40:00,57.5,55.5,29.88,East,90,0.0,-999.0,93,0.00,,,0.00,Wunderground v.1.15,2013-06-07 11:40:00,
2013-06-07 04:45:00,57.4,55.4,29.88,North,0,0.0,-999.0,93,0.00,,,0.00,Wunderground v.1.15,2013-06-07 11:45:00,
2013-06-07 04:50:00,57.4,55.4,29.88,North,0,0.0,-999.0,93,0.00,,,0.00,Wunderground v.1.15,2013-06-07 11:50:00,
2013-06-07 04:55:00,57.4,55.4,29.88,North,0,0.0,-999.0,93,0.00,,,0.00,Wunderground v.1.15,2013-06-07 11:55:00,
2013-06-07 05:00:00,57.4,55.4,29.88,North,0,0.0,-999.0,93,0.00,,,0.00,Wunderground v.1.15,2013-06-07 12:00:00,
2013-06-07 05:05:00,57.4,55.4,29.88,North,0,0.0,-999.0,93,0.00,,,0.00,Wunderground v.1.15,2013-06-07 12:05:00,
2013-06-07 05:10:00,57.4,55.4,29.88,North,0,0.0,-999.0,93,0.00,,,0.00,Wunderground v.1.15,2013-06-07 12:10:00,
2013-06-07 05:15:00,56.9,54.9,29.87,East,90,0.0,-999.0,93,0.00,,,0.00,Wunderground v.1.15,2013-06-07 12:15:00,
2013-06-07 05:20:00,56.9,54.9,29.87,East,90,0.0,-999.0,93,0.00,,,0.00,Wunderground v.1.15,2013-06-07 12:20:00,
2013-06-07 05:25:00,56.9,54.9,29.87,East,90,0.0,-999.0,93,0.00,,,0.00,Wunderground v.1.15,2013-06-07 12:25:00,
2013-06-07 05:30:00,56.9,54.9,29.87,East,90,0.0,-999.0,93,0.00,,,0.00,Wunderground v.1.15,2013-06-07 12:30:00,
2013-06-07 05:46:00,57.0,55.0,29.88,SSE,156,0.0,1.0,93,0.00,,,0.00,Wunderground v.1.15,2013-06-07 12:46:00,
2013-06-07 05:52:00,56.9,55.2,29.88,ESE,107,0.0,1.0,94,0.00,,,0.00,Wunderground v.1.15,2013-06-07 12:52:00,
2013-06-07 05:58:00,57.0,55.3,29.88,ESE,107,0.0,0.0,94,0.00,,,0.00,Wunderground v.1.15,2013-06-07 12:58:00,
2013-06-07 06:04:00,56.9,54.9,29.88,ESE,102,0.0,0.0,93,0.00,,,0.00,Wunderground v.1.15,2013-06-07 13:04:00,
2013-06-07 06:10:00,56.9,55.2,29.88,East,82,0.0,0.0,94,0.00,,,0.00,Wunderground v.1.15,2013-06-07 13:10:00,
2013-06-07 06:16:00,56.8,55.1,29.88,East,86,0.0,0.0,94,0.00,,,0.00,Wunderground v.1.15,2013-06-07 13:16:00,
2013-06-07 06:22:00,56.7,55.0,29.88,East,97,0.0,0.0,94,0.00,,,0.00,Wunderground v.1.15,2013-06-07 13:22:00,
2013-06-07 06:28:00,56.8,55.1,29.88,East,80,0.0,0.0,94,0.00,,,0.00,Wunderground v.1.15,2013-06-07 13:28:00,
2013-06-07 06:34:00,56.8,55.1,29.88,East,80,0.0,3.0,94,0.00,,,0.00,Wunderground v.1.15,2013-06-07 13:34:00,
2013-06-07 06:40:00,56.8,55.1,29.88,ENE,76,0.0,3.0,94,0.00,,,0.00,Wunderground v.1.15,2013-06-07 13:40:00,
2013-06-07 06:46:00,56.8,55.1,29.88,ENE,66,0.0,3.0,94,0.00,,,0.00,Wunderground v.1.15,2013-06-07 13:46:00,
2013-06-07 06:52:00,56.9,55.2,29.88,ENE,67,0.0,3.0,94,0.00,,,0.00,Wunderground v.1.15,2013-06-07 13:52:00,
2013-06-07 06:58:00,56.9,55.2,29.88,SW,236,0.0,3.0,94,0.00,,,0.00,Wunderground v.1.15,2013-06-07 13:58:00,
2013-06-07 07:04:00,57.0,55.3,29.88,ESE,104,0.0,0.0,94,0.00,,,0.00,Wunderground v.1.15,2013-06-07 14:04:00,
2013-06-07 07:10:00,57.2,55.5,29.88,NW,321,0.0,0.0,94,0.00,,,0.00,Wunderground v.1.15,2013-06-07 14:10:00,
2013-06-07 07:16:00,57.2,55.5,29.88,NW,321,0.0,0.0,94,0.00,,,0.00,Wunderground v.1.15,2013-06-07 14:16:00,
2013-06-07 07:22:00,57.4,55.7,29.88,NW,320,0.0,0.0,94,0.00,,,0.00,Wunderground v.1.15,2013-06-07 14:22:00,
2013-06-07 07:28:00,57.5,55.8,29.88,West,260,0.0,1.0,94,0.00,,,0.00,Wunderground v.1.15,2013-06-07 14:28:00,
2013-06-07 07:34:00,57.6,55.9,29.88,SW,219,0.0,2.0,94,0.00,,,0.00,Wunderground v.1.15,2013-06-07 14:34:00,
2013-06-07 07:40:00,57.7,56.0,29.89,ESE,102,0.0,2.0,94,0.00,,,0.00,Wunderground v.1.15,2013-06-07 14:40:00,
2013-06-07 07:46:00,57.9,56.2,29.88,SSW,203,0.0,2.0,94,0.00,,,0.00,Wunderground v.1.15,2013-06-07 14:46:00,
2013-06-07 07:52:00,57.9,55.9,29.88,WNW,283,0.0,2.0,93,0.00,,,0.00,Wunderground v.1.15,2013-06-07 14:52:00,
2013-06-07 07:58:00,58.2,56.2,29.88,WSW,240,0.0,2.0,93,0.00,,,0.00,Wunderground v.1.15,2013-06-07 14:58:00,
2013-06-07 08:04:00,58.3,56.3,29.89,WSW,253,0.0,0.0,93,0.00,,,0.00,Wunderground v.1.15,2013-06-07 15:04:00,
2013-06-07 08:10:00,58.4,56.4,29.89,WSW,249,0.0,0.0,93,0.00,,,0.00,Wunderground v.1.15,2013-06-07 15:10:00,
2013-06-07 08:16:00,58.4,56.1,29.89,WSW,245,0.0,1.0,92,0.00,,,0.00,Wunderground v.1.15,2013-06-07 15:16:00,
2013-06-07 08:22:00,58.4,56.1,29.89,WSW,249,0.0,0.0,92,0.00,,,0.00,Wunderground v.1.15,2013-06-07 15:22:00,
2013-06-07 08:28:00,58.8,56.5,29.89,WSW,249,0.0,0.0,92,0.00,,,0.00,Wunderground v.1.15,2013-06-07 15:28:00,
2013-06-07 08:34:00,59.1,56.8,29.89,WSW,240,0.0,2.0,92,0.00,,,0.00,Wunderground v.1.15,2013-06-07 15:34:00,
2013-06-07 08:40:00,59.5,56.9,29.89,SW,219,0.0,2.0,91,0.00,,,0.00,Wunderground v.1.15,2013-06-07 15:40:00,
2013-06-07 08:46:00,59.8,57.2,29.89,WSW,258,0.0,2.0,91,0.00,,,0.00,Wunderground v.1.15,2013-06-07 15:46:00,
2013-06-07 08:52:00,59.8,56.9,29.89,WSW,252,0.0,2.0,90,0.00,,,0.00,Wunderground v.1.15,2013-06-07 15:52:00,
2013-06-07 08:58:00,60.0,57.1,29.89,WSW,240,0.0,2.0,90,0.00,,,0.00,Wunderground v.1.15,2013-06-07 15:58:00,
2013-06-07 09:04:00,60.1,56.8,29.89,WNW,290,0.0,0.0,89,0.00,,,0.00,Wunderground v.1.15,2013-06-07 16:04:00,
2013-06-07 09:10:00,60.3,57.0,29.89,NNE,13,0.0,0.0,89,0.00,,,0.00,Wunderground v.1.15,2013-06-07 16:10:00,
2013-06-07 09:16:00,60.7,57.1,29.89,NNE,29,0.0,1.0,88,0.00,,,0.00,Wunderground v.1.15,2013-06-07 16:16:00,
2013-06-07 09:22:00,60.6,57.0,29.89,NNW,339,0.0,0.0,88,0.00,,,0.00,Wunderground v.1.15,2013-06-07 16:22:00,
2013-06-07 09:28:00,60.8,57.2,29.89,NNE,12,0.0,1.0,88,0.00,,,0.00,Wunderground v.1.15,2013-06-07 16:28:00,
2013-06-07 09:34:00,61.1,57.2,29.89,NNW,329,0.0,2.0,87,0.00,,,0.00,Wunderground v.1.15,2013-06-07 16:34:00,
2013-06-07 09:40:00,61.3,57.4,29.89,NNE,20,1.0,2.0,87,0.00,,,0.00,Wunderground v.1.15,2013-06-07 16:40:00,
2013-06-07 09:46:00,61.6,57.7,29.89,NNW,339,1.0,2.0,87,0.00,,,0.00,Wunderground v.1.15,2013-06-07 16:46:00,
2013-06-07 09:52:00,62.5,58.3,29.89,NE,44,0.0,2.0,86,0.00,,,0.00,Wunderground v.1.15,2013-06-07 16:52:00,
2013-06-07 09:58:00,63.4,58.5,29.88,North,355,1.0,2.0,84,0.00,,,0.00,Wunderground v.1.15,2013-06-07 16:58:00,
2013-06-07 10:04:00,64.1,58.5,29.88,WNW,290,1.0,2.0,82,0.00,,,0.00,Wunderground v.1.15,2013-06-07 17:04:00,
2013-06-07 10:10:00,65.2,58.9,29.88,SW,214,1.0,1.0,80,0.00,,,0.00,Wunderground v.1.15,2013-06-07 17:10:00,
2013-06-07 10:16:00,66.7,59.3,29.88,West,259,1.0,1.0,77,0.00,,,0.00,Wunderground v.1.15,2013-06-07 17:16:00,
2013-06-07 10:22:00,67.5,59.7,29.88,SW,233,0.0,2.0,76,0.00,,,0.00,Wunderground v.1.15,2013-06-07 17:22:00,
2013-06-07 10:28:00,68.2,60.0,29.88,West,273,1.0,2.0,75,0.00,,,0.00,Wunderground v.1.15,2013-06-07 17:28:00,
2013-06-07 10:34:00,68.4,59.0,29.89,NE,38,1.0,3.0,72,0.00,,,0.00,Wunderground v.1.15,2013-06-07 17:34:00,
2013-06-07 10:40:00,68.5,59.9,29.89,West,266,2.0,2.0,74,0.00,,,0.00,Wunderground v.1.15,2013-06-07 17:40:00,
2013-06-07 10:46:00,68.7,59.3,29.88,WSW,241,2.0,3.0,72,0.00,,,0.00,Wunderground v.1.15,2013-06-07 17:46:00,
2013-06-07 10:52:00,69.0,60.4,29.88,East,100,1.0,3.0,74,0.00,,,0.00,Wunderground v.1.15,2013-06-07 17:52:00,
2013-06-07 10:58:00,68.5,59.1,29.88,SW,232,2.0,4.0,72,0.00,,,0.00,Wunderground v.1.15,2013-06-07 17:58:00,
2013-06-07 11:04:00,67.8,59.2,29.88,West,264,2.0,5.0,74,0.00,,,0.00,Wunderground v.1.15,2013-06-07 18:04:00,
2013-06-07 11:10:00,68.1,59.9,29.88,WSW,239,2.0,3.0,75,0.00,,,0.00,Wunderground v.1.15,2013-06-07 18:10:00,
2013-06-07 11:16:00,68.2,59.6,29.89,NNE,31,2.0,3.0,74,0.00,,,0.00,Wunderground v.1.15,2013-06-07 18:16:00,
2013-06-07 11:22:00,68.2,59.6,29.88,SSW,203,2.0,2.0,74,0.00,,,0.00,Wunderground v.1.15,2013-06-07 18:22:00,
2013-06-07 11:28:00,68.0,59.4,29.88,WSW,253,2.0,4.0,74,0.00,,,0.00,Wunderground v.1.15,2013-06-07 18:28:00,
2013-06-07 11:34:00,68.0,59.0,29.88,WNW,294,2.0,4.0,73,0.00,,,0.00,Wunderground v.1.15,2013-06-07 18:34:00,
2013-06-07 11:40:00,68.0,59.4,29.88,WSW,240,2.0,4.0,74,0.00,,,0.00,Wunderground v.1.15,2013-06-07 18:40:00,
2013-06-07 11:46:00,68.4,59.4,29.88,WNW,301,2.0,4.0,73,0.00,,,0.00,Wunderground v.1.15,2013-06-07 18:46:00,
2013-06-07 11:52:00,68.6,60.0,29.88,WSW,243,2.0,4.0,74,0.00,,,0.00,Wunderground v.1.15,2013-06-07 18:52:00,
2013-06-07 11:58:00,68.7,59.7,29.88,WSW,253,2.0,4.0,73,0.00,,,0.00,Wunderground v.1.15,2013-06-07 18:58:00,
2013-06-07 12:06:00,68.8,60.2,29.87,South,180,2.0,6.0,74,0.00,,,0.00,Wunderground v.1.15,2013-06-07 19:06:00,
2013-06-07 12:12:00,69.9,60.5,29.87,NW,319,1.0,3.0,72,0.00,,,0.00,Wunderground v.1.15,2013-06-07 19:12:00,
2013-06-07 12:18:00,69.8,59.6,29.87,WSW,239,2.0,3.0,70,0.00,,,0.00,Wunderground v.1.15,2013-06-07 19:18:00,
2013-06-07 19:32:00,63.9,58.0,29.81,SW,224,2.0,2.0,81,0.00,,,0.00,Wunderground v.1.15,2013-06-08 02:32:00,
2013-06-07 19:38:00,63.4,57.8,29.81,WSW,248,2.0,2.0,82,0.00,,,0.00,Wunderground v.1.15,2013-06-08 02:38:00,
2013-06-07 19:44:00,62.7,57.5,29.82,SW,224,2.0,3.0,83,0.00,,,0.00,Wunderground v.1.15,2013-06-08 02:44:00,
2013-06-07 19:50:00,62.2,57.3,29.82,West,276,2.0,2.0,84,0.00,,,0.00,Wunderground v.1.15,2013-06-08 02:50:00,